Time;durP1;ratioP1;P1;durP2;ratioP2;P2;SDS_P1;SDS_P2;PMS_P1;PMS_P2;Temp;Humidity;BMP_temperature;BMP_pressure;BME280_temperature;BME280_humidity;BME280_pressure;Samples;Min_cycle;Max_cycle;Signal;HPM_P1;HPM_P2
2021/01/31 00:00:55;;;;;;;28.15;17.55;;;;;;;;;;6331247;22;20226;-96
2021/01/31 00:03:22;;;;;;;30.05;16.60;;;;;;;;;;6319505;22;20209;-96
2021/01/31 00:05:49;;;;;;;27.70;17.85;;;;;;;;;;6319697;22;20174;-96
2021/01/31 00:08:17;;;;;;;26.17;15.35;;;;;;;;;;6316639;22;20177;-96
2021/01/31 00:10:43;;;;;;;21.90;14.45;;;;;;;;;;6315902;22;20597;-93
2021/01/31 00:13:10;;;;;;;29.70;15.65;;;;;;;;;;6315333;22;20644;-95
2021/01/31 00:15:38;;;;;;;21.00;14.80;;;;;;;;;;6318341;22;20184;-95
2021/01/31 00:18:04;;;;;;;20.40;11.82;;;;;;;;;;6316290;22;20173;-95
2021/01/31 00:20:31;;;;;;;14.73;9.98;;;;;;;;;;6316660;22;20178;-95
2021/01/31 00:23:00;;;;;;;17.70;10.73;;;;;;;;;;6320173;22;20228;-96
2021/01/31 00:33:50;;;;;;;17.70;10.05;;;;;;;;;;6353502;22;20173;-95
2021/01/31 00:36:16;;;;;;;17.75;10.40;;;;;;;;;;6350408;22;20204;-94
2021/01/31 00:41:58;;;;;;;16.33;10.38;;;;;;;;;;6365416;22;20187;-95
2021/01/31 00:47:17;;;;;;;15.15;10.65;;;;;;;;;;6362160;22;20173;-95
2021/01/31 00:49:44;;;;;;;18.13;12.20;;;;;;;;;;6361575;22;20225;-96
2021/01/31 00:52:15;;;;;;;21.10;13.13;;;;;;;;;;6357211;22;20220;-95
2021/01/31 00:54:41;;;;;;;22.42;14.05;;;;;;;;;;6357230;22;20230;-95
2021/01/31 00:57:09;;;;;;;22.80;14.98;;;;;;;;;;6328966;22;20173;-95
2021/01/31 00:59:35;;;;;;;19.70;13.43;;;;;;;;;;6346863;22;20247;-94
2021/01/31 01:02:05;;;;;;;22.50;14.03;;;;;;;;;;6346626;22;20166;-95
2021/01/31 01:12:33;;;;;;;22.10;15.00;;;;;;;;;;6310532;22;20204;-95
2021/01/31 01:15:04;;;;;;;19.25;13.05;;;;;;;;;;6321758;22;20361;-96
2021/01/31 01:17:30;;;;;;;22.52;13.90;;;;;;;;;;6321692;22;20675;-94
2021/01/31 01:19:56;;;;;;;19.73;12.30;;;;;;;;;;6315685;22;20181;-93
2021/01/31 01:22:22;;;;;;;20.33;12.77;;;;;;;;;;6317483;22;20444;-92
2021/01/31 01:24:52;;;;;;;19.57;13.93;;;;;;;;;;6314690;22;20409;-95
2021/01/31 01:27:18;;;;;;;20.08;13.18;;;;;;;;;;6316063;22;20412;-93
2021/01/31 01:29:45;;;;;;;23.33;13.32;;;;;;;;;;6318314;22;20202;-93
2021/01/31 01:32:11;;;;;;;24.08;14.05;;;;;;;;;;6319237;22;20185;-95
2021/01/31 01:34:37;;;;;;;23.40;13.73;;;;;;;;;;6317914;22;20177;-95
2021/01/31 01:37:03;;;;;;;22.15;14.60;;;;;;;;;;6315286;22;20418;-95
2021/01/31 01:39:29;;;;;;;18.23;11.52;;;;;;;;;;6317181;22;20200;-95
2021/01/31 01:41:55;;;;;;;18.07;11.50;;;;;;;;;;6316169;22;20714;-96
2021/01/31 01:44:21;;;;;;;14.27;10.60;;;;;;;;;;6317699;22;20433;-96
2021/01/31 01:46:50;;;;;;;14.53;9.70;;;;;;;;;;6316067;22;20400;-95
2021/01/31 01:49:19;;;;;;;16.63;10.70;;;;;;;;;;6317735;22;20763;-94
2021/01/31 01:51:48;;;;;;;18.98;11.45;;;;;;;;;;6316765;22;20186;-95
2021/01/31 01:54:19;;;;;;;16.00;9.45;;;;;;;;;;6320223;22;20178;-94
2021/01/31 01:56:49;;;;;;;16.85;11.05;;;;;;;;;;6318475;22;20603;-95
2021/01/31 01:59:15;;;;;;;19.00;10.82;;;;;;;;;;6319384;22;20184;-96
2021/01/31 02:01:44;;;;;;;19.38;11.45;;;;;;;;;;6317750;22;20185;-95
2021/01/31 02:04:11;;;;;;;16.63;12.02;;;;;;;;;;6318202;22;20178;-95
2021/01/31 02:06:37;;;;;;;17.15;10.77;;;;;;;;;;6316083;22;20171;-95
2021/01/31 02:09:08;;;;;;;18.23;10.10;;;;;;;;;;6319494;22;20230;-96
2021/01/31 02:11:34;;;;;;;11.00;7.00;;;;;;;;;;6326009;22;20423;-95
2021/01/31 02:14:01;;;;;;;12.35;8.63;;;;;;;;;;6325386;22;20261;-96
2021/01/31 02:16:30;;;;;;;11.55;7.50;;;;;;;;;;6319261;22;20174;-95
2021/01/31 02:19:03;;;;;;;13.27;7.18;;;;;;;;;;6317867;22;20242;-94
2021/01/31 02:21:45;;;;;;;15.70;7.88;;;;;;;;;;6317279;22;20185;-93
2021/01/31 02:24:38;;;;;;;7.45;6.03;;;;;;;;;;6317016;22;20185;-93
2021/01/31 02:27:14;;;;;;;10.45;5.78;;;;;;;;;;6316359;22;20178;-92
2021/01/31 02:29:52;;;;;;;8.43;5.75;;;;;;;;;;6318129;22;20201;-94
2021/01/31 02:32:31;;;;;;;12.25;6.50;;;;;;;;;;6316488;22;20173;-95
2021/01/31 02:35:06;;;;;;;10.77;7.13;;;;;;;;;;6298541;22;20229;-96
2021/01/31 02:37:38;;;;;;;13.48;7.15;;;;;;;;;;6326669;22;20174;-96
2021/01/31 02:40:07;;;;;;;9.02;6.20;;;;;;;;;;6325815;22;20174;-96
2021/01/31 02:42:37;;;;;;;9.38;6.20;;;;;;;;;;6322856;22;20173;-96
2021/01/31 02:45:28;;;;;;;10.70;6.90;;;;;;;;;;6330141;22;20196;-96
2021/01/31 02:48:25;;;;;;;13.02;7.97;;;;;;;;;;6306195;22;20173;-96
2021/01/31 02:51:36;;;;;;;13.32;8.80;;;;;;;;;;6331607;22;20189;-96
2021/01/31 03:26:57;;;;;;;27.67;17.80;;;;;;;;;;6309565;22;20263;-96
2021/01/31 03:29:23;;;;;;;29.42;18.55;;;;;;;;;;6318958;22;20201;-95
2021/01/31 03:31:51;;;;;;;25.17;16.70;;;;;;;;;;6317110;22;20507;-94
2021/01/31 03:34:48;;;;;;;27.30;17.13;;;;;;;;;;6320873;22;20372;-95
2021/01/31 03:37:22;;;;;;;21.38;16.88;;;;;;;;;;6329275;22;20177;-96
2021/01/31 03:39:57;;;;;;;25.45;16.67;;;;;;;;;;6322633;22;20175;-95
2021/01/31 03:42:27;;;;;;;23.80;15.50;;;;;;;;;;6318072;22;20574;-96
2021/01/31 03:44:54;;;;;;;21.25;15.48;;;;;;;;;;6318021;22;20170;-94
2021/01/31 03:47:25;;;;;;;16.58;10.75;;;;;;;;;;6317193;22;20170;-94
2021/01/31 03:49:54;;;;;;;14.27;9.25;;;;;;;;;;6319087;22;20227;-96
2021/01/31 03:52:22;;;;;;;14.15;8.70;;;;;;;;;;6319791;22;20163;-95
2021/01/31 03:57:43;;;;;;;13.60;7.95;;;;;;;;;;6321207;22;20228;-96
2021/01/31 04:00:10;;;;;;;10.80;8.43;;;;;;;;;;6318968;22;20174;-95
2021/01/31 04:02:39;;;;;;;13.13;8.30;;;;;;;;;;6317847;22;20185;-95
2021/01/31 04:05:05;;;;;;;12.02;7.75;;;;;;;;;;6320613;22;20172;-94
2021/01/31 04:08:14;;;;;;;11.48;7.32;;;;;;;;;;6328273;22;20175;-96
2021/01/31 04:10:41;;;;;;;12.20;8.25;;;;;;;;;;6324673;22;20204;-94
2021/01/31 04:18:55;;;;;;;16.92;11.10;;;;;;;;;;6317428;22;20171;-95
2021/01/31 04:21:21;;;;;;;17.52;11.43;;;;;;;;;;6318740;22;20177;-95
2021/01/31 04:23:47;;;;;;;17.23;10.75;;;;;;;;;;6317070;22;20173;-93
2021/01/31 04:26:13;;;;;;;14.70;10.20;;;;;;;;;;6318311;22;20230;-96
2021/01/31 04:28:45;;;;;;;12.45;8.20;;;;;;;;;;6325769;22;20412;-96
2021/01/31 04:31:31;;;;;;;12.23;8.20;;;;;;;;;;6301419;22;20203;-96
2021/01/31 04:33:57;;;;;;;9.35;6.53;;;;;;;;;;6291954;22;20178;-95
2021/01/31 04:36:24;;;;;;;9.55;7.90;;;;;;;;;;6320549;22;20505;-96
2021/01/31 04:38:51;;;;;;;12.88;8.73;;;;;;;;;;6321730;22;20179;-96
2021/01/31 04:41:17;;;;;;;16.23;9.82;;;;;;;;;;6324471;22;20170;-96
2021/01/31 04:43:45;;;;;;;16.23;9.80;;;;;;;;;;6321923;22;20223;-96
2021/01/31 04:46:17;;;;;;;16.23;10.88;;;;;;;;;;6294446;22;20216;-96
2021/01/31 04:48:47;;;;;;;14.55;10.73;;;;;;;;;;6317980;22;20199;-96
2021/01/31 04:51:21;;;;;;;18.20;13.10;;;;;;;;;;6319056;22;20205;-96
2021/01/31 04:53:53;;;;;;;19.00;12.75;;;;;;;;;;6319224;22;20178;-95
2021/01/31 05:02:16;;;;;;;19.35;13.73;;;;;;;;;;6301788;22;20209;-95
2021/01/31 05:07:46;;;;;;;18.23;12.30;;;;;;;;;;6298929;22;20228;-95
2021/01/31 05:10:12;;;;;;;22.13;14.05;;;;;;;;;;6286933;22;20223;-92
2021/01/31 05:12:42;;;;;;;19.30;12.40;;;;;;;;;;6286803;22;20215;-93
2021/01/31 05:15:19;;;;;;;16.90;11.57;;;;;;;;;;6286274;22;20171;-95
2021/01/31 05:17:47;;;;;;;18.90;14.32;;;;;;;;;;6287917;22;20170;-96
2021/01/31 05:20:14;;;;;;;23.55;14.43;;;;;;;;;;6285568;22;20174;-94
2021/01/31 05:22:41;;;;;;;18.95;12.10;;;;;;;;;;6286796;22;20193;-95
2021/01/31 05:25:10;;;;;;;18.98;9.98;;;;;;;;;;6290150;22;20174;-94
2021/01/31 05:27:39;;;;;;;14.25;10.05;;;;;;;;;;6293370;22;20216;-96
2021/01/31 05:30:05;;;;;;;14.07;9.40;;;;;;;;;;6287481;22;20202;-95
2021/01/31 05:35:52;;;;;;;11.13;8.05;;;;;;;;;;6289311;22;20178;-96
2021/01/31 05:38:34;;;;;;;12.70;8.70;;;;;;;;;;6293267;22;20230;-95
2021/01/31 05:41:20;;;;;;;11.68;8.60;;;;;;;;;;6285310;22;20234;-95
2021/01/31 05:43:54;;;;;;;13.15;9.13;;;;;;;;;;6279987;22;20253;-95
2021/01/31 05:49:45;;;;;;;17.55;10.63;;;;;;;;;;6274887;22;20251;-96
2021/01/31 05:52:33;;;;;;;16.90;11.70;;;;;;;;;;6300614;22;20182;-95
2021/01/31 05:55:07;;;;;;;15.55;11.10;;;;;;;;;;6268885;22;20216;-95
2021/01/31 05:57:35;;;;;;;10.85;7.88;;;;;;;;;;6267425;22;20205;-96
2021/01/31 06:00:19;;;;;;;11.45;7.85;;;;;;;;;;6298648;22;20163;-96
2021/01/31 06:02:57;;;;;;;11.48;7.72;;;;;;;;;;6293461;22;20214;-95
2021/01/31 06:05:28;;;;;;;10.55;7.53;;;;;;;;;;6296676;22;20181;-95
2021/01/31 06:08:05;;;;;;;11.10;7.47;;;;;;;;;;6273526;22;20174;-96
2021/01/31 06:10:33;;;;;;;12.07;8.40;;;;;;;;;;6301900;22;20203;-95
2021/01/31 06:13:08;;;;;;;12.07;8.55;;;;;;;;;;6288435;22;20170;-95
2021/01/31 06:15:38;;;;;;;19.60;12.38;;;;;;;;;;6288750;22;20179;-93
2021/01/31 06:18:07;;;;;;;28.10;18.33;;;;;;;;;;6288534;22;20175;-96
2021/01/31 06:24:02;;;;;;;23.40;14.75;;;;;;;;;;6278992;22;20182;-96
2021/01/31 06:29:38;;;;;;;14.90;10.70;;;;;;;;;;6318972;22;20205;-96
2021/01/31 06:32:06;;;;;;;16.05;11.85;;;;;;;;;;6325154;22;20171;-96
2021/01/31 06:34:32;;;;;;;20.05;15.27;;;;;;;;;;6319922;22;20181;-94
2021/01/31 06:37:16;;;;;;;22.47;15.73;;;;;;;;;;6317045;22;20187;-95
2021/01/31 06:39:50;;;;;;;28.27;18.05;;;;;;;;;;6293947;22;20435;-96
2021/01/31 07:06:11;;;;;;;32.83;23.40;;;;;;;;;;6293763;22;20212;-96
2021/01/31 07:08:55;;;;;;;27.17;19.63;;;;;;;;;;6290272;22;20224;-95
2021/01/31 07:14:26;;;;;;;33.63;22.70;;;;;;;;;;6304958;22;20186;-94
2021/01/31 07:19:25;;;;;;;30.42;20.23;;;;;;;;;;6307221;22;20234;-96
2021/01/31 07:33:04;;;;;;;38.25;25.70;;;;;;;;;;6326233;22;20204;-95
2021/01/31 07:35:35;;;;;;;37.63;27.83;;;;;;;;;;6321512;22;20199;-96
2021/01/31 07:38:06;;;;;;;38.78;26.60;;;;;;;;;;6319870;22;20183;-96
2021/01/31 07:40:36;;;;;;;37.60;25.35;;;;;;;;;;6320537;22;20181;-95
2021/01/31 07:43:04;;;;;;;34.67;23.50;;;;;;;;;;6313672;22;20200;-96
2021/01/31 07:45:30;;;;;;;34.65;24.30;;;;;;;;;;6317205;22;20183;-95
2021/01/31 07:50:58;;;;;;;32.72;23.35;;;;;;;;;;6299381;22;20207;-96
2021/01/31 07:53:26;;;;;;;29.85;21.55;;;;;;;;;;6294066;22;20213;-95
2021/01/31 07:55:53;;;;;;;27.85;19.77;;;;;;;;;;6318051;22;20174;-95
2021/01/31 07:58:36;;;;;;;20.92;15.95;;;;;;;;;;6317430;22;20250;-95
2021/01/31 08:01:02;;;;;;;18.02;13.90;;;;;;;;;;6314731;22;20181;-95
2021/01/31 08:03:34;;;;;;;14.90;10.50;;;;;;;;;;6316174;22;20174;-94
2021/01/31 08:06:05;;;;;;;10.80;8.00;;;;;;;;;;6316145;22;20786;-93
2021/01/31 08:08:46;;;;;;;10.60;7.50;;;;;;;;;;6317430;22;20507;-92
2021/01/31 08:11:27;;;;;;;7.90;5.83;;;;;;;;;;6315004;22;20419;-94
2021/01/31 08:13:53;;;;;;;4.67;4.20;;;;;;;;;;6291781;22;20433;-95
2021/01/31 08:16:49;;;;;;;4.80;3.93;;;;;;;;;;6316271;22;20419;-94
2021/01/31 08:19:25;;;;;;;5.30;3.57;;;;;;;;;;6192256;23;20579;-95
2021/01/31 08:21:54;;;;;;;4.67;3.73;;;;;;;;;;6293164;22;20471;-95
2021/01/31 08:24:47;;;;;;;3.77;3.40;;;;;;;;;;6316747;22;20412;-94
2021/01/31 08:27:13;;;;;;;3.80;3.20;;;;;;;;;;6242815;22;20412;-94
2021/01/31 08:29:39;;;;;;;3.03;2.70;;;;;;;;;;6315896;22;20440;-94
2021/01/31 08:32:15;;;;;;;3.73;3.30;;;;;;;;;;6314216;22;20409;-93
2021/01/31 08:34:59;;;;;;;3.70;3.40;;;;;;;;;;6316291;22;20426;-94
2021/01/31 08:37:28;;;;;;;3.63;3.33;;;;;;;;;;6315309;22;20412;-91
2021/01/31 08:39:54;;;;;;;5.40;4.07;;;;;;;;;;6316095;22;20404;-92
2021/01/31 08:42:20;;;;;;;3.50;3.20;;;;;;;;;;6313153;22;20423;-94
2021/01/31 08:44:55;;;;;;;3.13;2.50;;;;;;;;;;6317482;22;20396;-94
2021/01/31 08:47:21;;;;;;;3.00;2.20;;;;;;;;;;6317930;22;20418;-95
2021/01/31 08:50:02;;;;;;;3.07;2.73;;;;;;;;;;6318383;22;20466;-96
2021/01/31 08:52:44;;;;;;;8.57;6.67;;;;;;;;;;6319790;22;20388;-95
2021/01/31 08:55:27;;;;;;;10.30;8.20;;;;;;;;;;6323119;22;20438;-95
2021/01/31 08:57:58;;;;;;;14.77;10.20;;;;;;;;;;6311509;22;20408;-95
2021/01/31 09:00:27;;;;;;;5.13;4.63;;;;;;;;;;6320370;22;20440;-93
2021/01/31 09:02:53;;;;;;;3.47;2.60;;;;;;;;;;6318417;22;20400;-94
2021/01/31 09:05:20;;;;;;;2.40;2.20;;;;;;;;;;6319603;22;20416;-92
2021/01/31 09:07:47;;;;;;;2.40;2.20;;;;;;;;;;6315905;22;20411;-93
2021/01/31 09:10:16;;;;;;;2.77;2.57;;;;;;;;;;6317114;22;20454;-94
2021/01/31 09:12:43;;;;;;;3.33;2.90;;;;;;;;;;6316989;22;20404;-94
2021/01/31 09:15:12;;;;;;;2.13;1.93;;;;;;;;;;6318959;22;20400;-92
2021/01/31 09:17:38;;;;;;;2.40;2.20;;;;;;;;;;6316420;22;20406;-94
2021/01/31 09:20:05;;;;;;;2.20;1.93;;;;;;;;;;6320109;22;20411;-94
2021/01/31 09:22:37;;;;;;;2.73;2.40;;;;;;;;;;6320343;22;20413;-93
2021/01/31 09:25:06;;;;;;;2.60;2.40;;;;;;;;;;6316703;22;20428;-94
2021/01/31 09:27:32;;;;;;;2.60;2.20;;;;;;;;;;6316732;22;20434;-94
2021/01/31 09:30:00;;;;;;;2.20;2.00;;;;;;;;;;6315555;22;20466;-93
2021/01/31 09:35:08;;;;;;;7.30;5.77;;;;;;;;;;6294583;22;20452;-94
2021/01/31 09:37:34;;;;;;;5.90;3.97;;;;;;;;;;6302782;22;20518;-93
2021/01/31 09:40:01;;;;;;;2.90;2.40;;;;;;;;;;6317622;22;20466;-93
2021/01/31 09:42:28;;;;;;;2.37;2.17;;;;;;;;;;6319279;22;20412;-94
2021/01/31 09:44:56;;;;;;;2.63;2.43;;;;;;;;;;6319161;22;20411;-94
2021/01/31 09:47:22;;;;;;;2.73;2.53;;;;;;;;;;6317211;22;20424;-93
2021/01/31 09:49:51;;;;;;;2.60;2.33;;;;;;;;;;6316531;22;20453;-91
2021/01/31 09:52:18;;;;;;;2.50;2.10;;;;;;;;;;6314343;22;20401;-94
2021/01/31 09:54:44;;;;;;;4.67;3.03;;;;;;;;;;6318421;22;20416;-94
2021/01/31 09:57:17;;;;;;;3.10;2.70;;;;;;;;;;6323009;22;20468;-94
2021/01/31 09:59:44;;;;;;;4.13;2.90;;;;;;;;;;6317095;22;20495;-94
2021/01/31 10:02:11;;;;;;;3.70;3.20;;;;;;;;;;6314379;22;20407;-95
2021/01/31 10:04:38;;;;;;;4.00;3.60;;;;;;;;;;6315639;22;20415;-94
2021/01/31 10:07:08;;;;;;;3.50;3.20;;;;;;;;;;6314798;22;20456;-91
2021/01/31 10:09:36;;;;;;;5.50;3.57;;;;;;;;;;6315827;22;20448;-93
2021/01/31 10:12:13;;;;;;;3.30;3.10;;;;;;;;;;6312622;22;20814;-93
2021/01/31 10:14:43;;;;;;;2.27;2.07;;;;;;;;;;6317172;22;20412;-93
2021/01/31 10:17:13;;;;;;;2.23;2.03;;;;;;;;;;6317590;22;20407;-94
2021/01/31 10:19:44;;;;;;;3.30;2.30;;;;;;;;;;6322600;22;20454;-94
2021/01/31 10:22:19;;;;;;;1.97;1.87;;;;;;;;;;6322327;22;20416;-94
2021/01/31 10:25:02;;;;;;;1.90;1.80;;;;;;;;;;6319934;22;20444;-92
2021/01/31 10:27:33;;;;;;;1.70;1.60;;;;;;;;;;6317726;22;20417;-94
2021/01/31 10:30:16;;;;;;;2.10;1.70;;;;;;;;;;6316874;22;20456;-94
2021/01/31 10:32:43;;;;;;;2.10;1.90;;;;;;;;;;6318231;22;20407;-94
2021/01/31 10:35:26;;;;;;;1.90;1.80;;;;;;;;;;6317900;22;20412;-93
2021/01/31 10:37:53;;;;;;;2.00;1.90;;;;;;;;;;6318787;22;20418;-94
2021/01/31 10:40:19;;;;;;;2.13;2.00;;;;;;;;;;6315918;22;20416;-93
2021/01/31 10:42:48;;;;;;;2.00;1.90;;;;;;;;;;6317018;22;20411;-95
2021/01/31 10:45:16;;;;;;;2.10;2.00;;;;;;;;;;6320069;22;20407;-94
2021/01/31 10:47:42;;;;;;;3.27;2.20;;;;;;;;;;6320710;22;21151;-93
2021/01/31 10:50:09;;;;;;;2.30;1.93;;;;;;;;;;6316792;22;20455;-96
2021/01/31 10:52:36;;;;;;;2.53;2.00;;;;;;;;;;6316620;22;21058;-93
2021/01/31 10:55:05;;;;;;;1.77;1.67;;;;;;;;;;6316523;22;20834;-93
2021/01/31 10:57:31;;;;;;;2.30;2.10;;;;;;;;;;6313882;22;20413;-94
2021/01/31 10:59:58;;;;;;;2.27;2.07;;;;;;;;;;6304740;22;20421;-92
2021/01/31 11:02:24;;;;;;;4.23;2.53;;;;;;;;;;6307692;22;20413;-91
2021/01/31 11:04:50;;;;;;;2.17;2.07;;;;;;;;;;6309006;22;20444;-93
2021/01/31 11:07:16;;;;;;;2.50;2.30;;;;;;;;;;6314678;22;20445;-93
2021/01/31 11:09:42;;;;;;;2.33;2.13;;;;;;;;;;6313074;22;20450;-93
2021/01/31 11:12:08;;;;;;;2.67;2.47;;;;;;;;;;6314384;22;20459;-92
2021/01/31 11:14:34;;;;;;;2.20;2.10;;;;;;;;;;6316474;22;20405;-94
2021/01/31 11:17:01;;;;;;;2.63;2.43;;;;;;;;;;6315315;22;20406;-93
2021/01/31 11:19:27;;;;;;;2.70;2.50;;;;;;;;;;6318676;22;20415;-93
2021/01/31 11:21:53;;;;;;;2.50;2.03;;;;;;;;;;6317379;22;20965;-92
2021/01/31 11:24:22;;;;;;;2.30;2.10;;;;;;;;;;6315711;22;20444;-95
2021/01/31 11:26:48;;;;;;;2.70;2.17;;;;;;;;;;6320753;22;20410;-94
2021/01/31 11:29:14;;;;;;;3.30;2.50;;;;;;;;;;6320219;22;20545;-95
2021/01/31 11:31:52;;;;;;;2.27;2.10;;;;;;;;;;6323031;22;20745;-94
2021/01/31 11:34:19;;;;;;;3.27;2.20;;;;;;;;;;6320531;22;20425;-94
2021/01/31 11:36:45;;;;;;;3.20;2.20;;;;;;;;;;6326479;22;20408;-94
2021/01/31 11:41:52;;;;;;;2.23;2.00;;;;;;;;;;6315371;22;20422;-91
2021/01/31 11:44:18;;;;;;;4.00;2.30;;;;;;;;;;6318459;22;20436;-93
2021/01/31 11:46:44;;;;;;;5.30;2.57;;;;;;;;;;6313137;22;20426;-94
2021/01/31 11:49:10;;;;;;;2.37;2.17;;;;;;;;;;6318233;22;20466;-94
2021/01/31 11:51:37;;;;;;;2.50;2.30;;;;;;;;;;6316687;22;20646;-93
2021/01/31 11:54:03;;;;;;;2.63;2.43;;;;;;;;;;6318597;22;20415;-95
2021/01/31 11:56:28;;;;;;;2.67;2.47;;;;;;;;;;6318141;22;20411;-93
2021/01/31 11:58:55;;;;;;;2.50;2.30;;;;;;;;;;6318120;22;20404;-92
2021/01/31 12:01:21;;;;;;;3.50;3.20;;;;;;;;;;6313173;22;20403;-94
2021/01/31 12:03:47;;;;;;;2.90;2.70;;;;;;;;;;6316019;22;20432;-92
2021/01/31 12:06:15;;;;;;;2.60;2.30;;;;;;;;;;6316663;22;20545;-95
2021/01/31 12:08:42;;;;;;;2.53;2.33;;;;;;;;;;6318457;22;20416;-93
2021/01/31 12:11:30;;;;;;;2.50;2.30;;;;;;;;;;6320762;22;20451;-95
2021/01/31 12:14:01;;;;;;;2.63;2.43;;;;;;;;;;6324251;22;20863;-96
2021/01/31 12:16:27;;;;;;;3.00;2.40;;;;;;;;;;6317214;22;20749;-91
2021/01/31 12:18:53;;;;;;;2.53;2.33;;;;;;;;;;6317615;22;20404;-93
2021/01/31 12:21:19;;;;;;;2.43;2.23;;;;;;;;;;6316315;22;20407;-93
2021/01/31 12:23:46;;;;;;;3.00;2.27;;;;;;;;;;6316752;22;20516;-93
2021/01/31 12:26:14;;;;;;;3.43;2.60;;;;;;;;;;6319243;22;20412;-94
2021/01/31 12:28:44;;;;;;;2.73;2.53;;;;;;;;;;6319593;22;20389;-95
2021/01/31 12:31:11;;;;;;;3.00;2.70;;;;;;;;;;6320933;22;20444;-95
2021/01/31 12:33:38;;;;;;;3.20;2.90;;;;;;;;;;6317337;22;20428;-96
2021/01/31 12:36:06;;;;;;;3.70;3.40;;;;;;;;;;6320106;22;20400;-95
2021/01/31 12:38:32;;;;;;;4.10;3.70;;;;;;;;;;6317592;22;20441;-94
2021/01/31 12:40:59;;;;;;;5.50;3.13;;;;;;;;;;6318671;22;20437;-94
2021/01/31 12:43:25;;;;;;;3.60;2.90;;;;;;;;;;6315733;22;20406;-92
2021/01/31 12:45:51;;;;;;;3.50;3.00;;;;;;;;;;6318174;22;20415;-94
2021/01/31 12:48:17;;;;;;;3.50;2.70;;;;;;;;;;6317329;22;20487;-92
2021/01/31 12:50:46;;;;;;;3.23;2.93;;;;;;;;;;6319460;22;20449;-93
2021/01/31 12:53:12;;;;;;;5.37;3.67;;;;;;;;;;6320688;22;20411;-95
2021/01/31 12:55:41;;;;;;;3.73;2.80;;;;;;;;;;6321751;22;20428;-95
2021/01/31 12:58:08;;;;;;;3.50;2.90;;;;;;;;;;6318463;22;20421;-94
2021/01/31 13:00:37;;;;;;;6.63;4.20;;;;;;;;;;6320882;22;20415;-96
2021/01/31 13:03:05;;;;;;;3.50;2.90;;;;;;;;;;6318255;22;20936;-94
2021/01/31 13:05:31;;;;;;;4.13;3.73;;;;;;;;;;6320429;22;20411;-93
2021/01/31 13:07:58;;;;;;;4.03;3.43;;;;;;;;;;6315886;22;20441;-94
2021/01/31 13:10:24;;;;;;;3.90;3.30;;;;;;;;;;6317653;22;20456;-94
2021/01/31 13:12:52;;;;;;;3.13;2.90;;;;;;;;;;6316735;22;20479;-94
2021/01/31 13:15:19;;;;;;;4.97;3.47;;;;;;;;;;6314749;22;20435;-93
2021/01/31 13:17:45;;;;;;;3.43;3.13;;;;;;;;;;6317070;22;20404;-92
2021/01/31 13:20:12;;;;;;;5.07;2.97;;;;;;;;;;6314327;22;20403;-91
2021/01/31 13:22:38;;;;;;;3.27;2.97;;;;;;;;;;6315499;22;20412;-93
2021/01/31 13:25:05;;;;;;;3.13;2.90;;;;;;;;;;6314657;22;20485;-93
2021/01/31 13:27:31;;;;;;;6.17;3.40;;;;;;;;;;6318447;22;20418;-94
2021/01/31 13:29:57;;;;;;;4.30;3.30;;;;;;;;;;6316191;22;20465;-92
2021/01/31 13:32:24;;;;;;;2.80;2.60;;;;;;;;;;6317389;22;20440;-95
2021/01/31 13:34:50;;;;;;;3.73;3.33;;;;;;;;;;6315802;22;20411;-93
2021/01/31 13:37:15;;;;;;;3.53;3.17;;;;;;;;;;6317353;22;20410;-93
2021/01/31 13:39:41;;;;;;;4.07;3.23;;;;;;;;;;6316657;22;20462;-94
2021/01/31 13:42:07;;;;;;;2.80;2.60;;;;;;;;;;6320068;22;20439;-94
2021/01/31 13:44:33;;;;;;;3.77;3.37;;;;;;;;;;6320975;22;20413;-94
2021/01/31 13:47:01;;;;;;;3.83;3.10;;;;;;;;;;6318175;22;20987;-95
2021/01/31 13:49:29;;;;;;;4.20;2.93;;;;;;;;;;6319701;22;20411;-92
2021/01/31 13:52:01;;;;;;;3.30;2.60;;;;;;;;;;6320909;22;20384;-95
2021/01/31 13:54:27;;;;;;;5.33;2.93;;;;;;;;;;6322815;22;20486;-93
2021/01/31 13:56:53;;;;;;;4.73;2.50;;;;;;;;;;6321574;22;20809;-93
2021/01/31 13:59:19;;;;;;;2.80;2.60;;;;;;;;;;6324024;22;20468;-95
2021/01/31 14:01:46;;;;;;;2.67;2.30;;;;;;;;;;6320614;22;20494;-95
2021/01/31 14:04:12;;;;;;;3.03;2.63;;;;;;;;;;6321786;22;20507;-95
2021/01/31 14:06:39;;;;;;;3.20;2.23;;;;;;;;;;6319107;22;20406;-94
2021/01/31 14:09:06;;;;;;;3.50;2.90;;;;;;;;;;6314364;22;20476;-91
2021/01/31 14:11:32;;;;;;;9.97;6.23;;;;;;;;;;6313207;22;20461;-94
2021/01/31 14:13:58;;;;;;;3.87;2.73;;;;;;;;;;6313313;22;20405;-95
2021/01/31 14:16:24;;;;;;;3.03;2.73;;;;;;;;;;6310780;22;20497;-94
2021/01/31 14:19:00;;;;;;;5.10;2.77;;;;;;;;;;6315830;22;20404;-95
2021/01/31 14:21:31;;;;;;;3.30;2.50;;;;;;;;;;6320413;22;20682;-94
2021/01/31 14:24:02;;;;;;;3.57;2.37;;;;;;;;;;6322953;22;20413;-94
2021/01/31 14:26:30;;;;;;;2.67;2.30;;;;;;;;;;6317974;22;20417;-95
2021/01/31 14:28:56;;;;;;;3.53;3.00;;;;;;;;;;6321131;22;20433;-93
2021/01/31 14:31:22;;;;;;;3.63;2.70;;;;;;;;;;6317808;22;20507;-93
2021/01/31 14:33:48;;;;;;;4.50;2.77;;;;;;;;;;6318006;22;20411;-94
2021/01/31 14:36:14;;;;;;;2.87;2.53;;;;;;;;;;6321719;22;20409;-95
2021/01/31 14:38:41;;;;;;;2.93;2.70;;;;;;;;;;6288463;22;20445;-92
2021/01/31 14:41:08;;;;;;;4.77;2.83;;;;;;;;;;6290587;22;20418;-94
2021/01/31 14:43:34;;;;;;;4.60;3.60;;;;;;;;;;6289934;22;20422;-95
2021/01/31 14:46:00;;;;;;;6.50;2.90;;;;;;;;;;6287262;22;20407;-95
2021/01/31 14:48:26;;;;;;;5.10;4.53;;;;;;;;;;6288055;22;20413;-94
2021/01/31 14:50:54;;;;;;;4.20;2.70;;;;;;;;;;6292969;22;20449;-95
2021/01/31 14:53:21;;;;;;;2.53;2.27;;;;;;;;;;6291971;22;20398;-95
2021/01/31 14:55:48;;;;;;;3.03;2.73;;;;;;;;;;6292067;22;20441;-94
2021/01/31 14:58:15;;;;;;;2.70;2.30;;;;;;;;;;6288109;22;20390;-94
2021/01/31 15:00:42;;;;;;;4.30;2.60;;;;;;;;;;6289833;22;20406;-92
2021/01/31 15:03:11;;;;;;;3.07;2.70;;;;;;;;;;6289881;22;20402;-94
2021/01/31 15:05:37;;;;;;;4.60;3.30;;;;;;;;;;6292297;22;20449;-94
2021/01/31 15:08:06;;;;;;;10.60;7.60;;;;;;;;;;6290066;22;20412;-95
2021/01/31 15:10:56;;;;;;;4.47;3.07;;;;;;;;;;6294094;22;20441;-96
2021/01/31 15:13:46;;;;;;;4.97;3.23;;;;;;;;;;6320870;22;20495;-95
2021/01/31 15:16:17;;;;;;;2.53;2.30;;;;;;;;;;6354524;22;20390;-94
2021/01/31 15:18:57;;;;;;;5.40;3.30;;;;;;;;;;6343988;22;20446;-96
2021/01/31 15:21:33;;;;;;;3.70;2.33;;;;;;;;;;6328453;22;20433;-95
2021/01/31 15:23:59;;;;;;;5.50;3.60;;;;;;;;;;6326521;22;20461;-94
2021/01/31 15:26:25;;;;;;;3.50;3.20;;;;;;;;;;6327499;22;20463;-91
2021/01/31 15:28:58;;;;;;;3.30;2.33;;;;;;;;;;6325122;22;20401;-96
2021/01/31 15:31:26;;;;;;;3.50;3.20;;;;;;;;;;6324868;22;20476;-94
2021/01/31 15:34:05;;;;;;;2.97;2.47;;;;;;;;;;6326709;22;20408;-94
2021/01/31 15:36:34;;;;;;;4.43;3.10;;;;;;;;;;6328416;22;20541;-93
2021/01/31 15:41:43;;;;;;;2.80;2.47;;;;;;;;;;6327011;22;20440;-95
2021/01/31 15:44:12;;;;;;;2.60;2.40;;;;;;;;;;6327458;22;20464;-94
2021/01/31 15:46:42;;;;;;;3.60;2.80;;;;;;;;;;6328692;22;20470;-92
2021/01/31 15:49:10;;;;;;;6.77;2.87;;;;;;;;;;6322304;22;20562;-95
2021/01/31 15:51:36;;;;;;;4.20;3.67;;;;;;;;;;6325062;22;20455;-95
2021/01/31 15:54:09;;;;;;;4.83;3.47;;;;;;;;;;6322537;22;20402;-93
2021/01/31 15:56:41;;;;;;;3.07;2.70;;;;;;;;;;6326841;22;20405;-94
2021/01/31 15:59:09;;;;;;;3.50;3.10;;;;;;;;;;6330373;22;20404;-92
2021/01/31 16:04:08;;;;;;;5.27;2.33;;;;;;;;;;6326910;22;20449;-95
2021/01/31 16:06:41;;;;;;;5.17;2.70;;;;;;;;;;6327081;22;20436;-95
2021/01/31 16:09:32;;;;;;;3.30;2.73;;;;;;;;;;6330602;22;20402;-94
2021/01/31 16:11:58;;;;;;;3.70;2.83;;;;;;;;;;6324607;22;20830;-93
2021/01/31 16:14:28;;;;;;;4.10;2.93;;;;;;;;;;6325444;22;20487;-93
2021/01/31 16:17:15;;;;;;;6.83;2.93;;;;;;;;;;6323799;22;20410;-94
2021/01/31 16:19:42;;;;;;;6.83;2.77;;;;;;;;;;6320172;22;20416;-93
2021/01/31 16:22:12;;;;;;;4.40;2.63;;;;;;;;;;6296805;22;20425;-95
2021/01/31 16:24:38;;;;;;;4.67;2.73;;;;;;;;;;6323604;22;20414;-95
2021/01/31 16:27:06;;;;;;;5.60;2.63;;;;;;;;;;6292980;22;20468;-93
2021/01/31 16:29:32;;;;;;;6.17;2.40;;;;;;;;;;6292868;22;20418;-92
2021/01/31 16:31:58;;;;;;;3.30;2.53;;;;;;;;;;6290469;22;20402;-94
2021/01/31 16:34:33;;;;;;;3.60;2.67;;;;;;;;;;6293537;22;20415;-95
2021/01/31 16:37:02;;;;;;;2.70;2.50;;;;;;;;;;6293657;22;20430;-93
2021/01/31 16:39:46;;;;;;;3.67;2.50;;;;;;;;;;6288053;22;20418;-95
2021/01/31 16:42:14;;;;;;;3.53;2.57;;;;;;;;;;6290914;22;20490;-96
2021/01/31 16:44:41;;;;;;;2.77;2.53;;;;;;;;;;6294601;22;20393;-94
2021/01/31 16:47:07;;;;;;;3.57;2.67;;;;;;;;;;6288950;22;20433;-94
2021/01/31 16:49:41;;;;;;;4.33;2.90;;;;;;;;;;6292538;22;20410;-96
2021/01/31 16:52:26;;;;;;;6.00;3.17;;;;;;;;;;6295086;22;20418;-94
2021/01/31 16:55:04;;;;;;;5.60;4.53;;;;;;;;;;6295426;22;20856;-96
2021/01/31 16:57:47;;;;;;;6.30;2.80;;;;;;;;;;6295789;22;20403;-94
2021/01/31 17:00:16;;;;;;;6.43;2.87;;;;;;;;;;6300720;22;20419;-95
2021/01/31 17:02:42;;;;;;;5.37;3.10;;;;;;;;;;6295340;22;20410;-95
2021/01/31 17:05:09;;;;;;;5.00;2.90;;;;;;;;;;6295968;22;20419;-95
2021/01/31 17:07:38;;;;;;;3.87;3.20;;;;;;;;;;6293250;22;20399;-95
2021/01/31 17:10:09;;;;;;;7.43;3.40;;;;;;;;;;6295605;22;20454;-94